Aline, Georgia
Current Conditions -  °F | °C
As of 8:15 PM on Sunday 23 Nov 2014 (Local Time) from KVDI Reporting Station
Moderate Rain Moderate Rain  
Wind Chill: 19°   Ceiling: 7500
Heat Index: 19°   Visibility: 10mi
Dew Point: 18°   Wind: 6mph
Humidity: 94%   Direction: 200°SSW
Pressure: 29.82"   Gusts: NA
Location:  32.2572°N, 82.1288°W
Report Text: KVDI 240115Z AUTO 20005KT 10SM RA SCT024 BKN075 OVC090 19/18 A2982 RMK AO2 LTG DSNT E THRU SW
Loading
Personal Weather Stations






























Interactive Weather Map New forecast layout! Learn more

10-Day Weather Forecast

Advertisements
Track Severe Weather on mobile